Time;durP1;ratioP1;P1;durP2;ratioP2;P2;SDS_P1;SDS_P2;PMS_P1;PMS_P2;Temp;Humidity;BMP_temperature;BMP_pressure;BME280_temperature;BME280_humidity;BME280_pressure;Samples;Min_cycle;Max_cycle;Signal;HPM_P1;HPM_P2
2022/08/28 00:02:08;;;;;;;9.43;3.53;;;14.20;99.90;;;;;;4985249;28;20046;-79
2022/08/28 00:04:34;;;;;;;11.50;3.75;;;14.20;99.90;;;;;;4987717;28;20042;-79
2022/08/28 00:07:00;;;;;;;13.18;3.53;;;14.20;99.90;;;;;;4987730;28;20408;-80
2022/08/28 00:09:26;;;;;;;12.55;3.63;;;14.20;99.90;;;;;;4985169;28;20077;-77
2022/08/28 00:11:52;;;;;;;6.20;3.22;;;14.20;99.90;;;;;;4987429;28;20066;-77
2022/08/28 00:14:19;;;;;;;10.45;2.60;;;14.10;99.90;;;;;;4986627;28;20129;-77
2022/08/28 00:16:49;;;;;;;5.35;2.70;;;14.10;99.90;;;;;;4984978;28;20393;-78
2022/08/28 00:19:17;;;;;;;11.40;4.13;;;14.10;99.90;;;;;;4981747;28;20125;-78
2022/08/28 00:21:43;;;;;;;11.27;2.95;;;14.10;99.90;;;;;;4987781;28;20157;-77
2022/08/28 00:24:09;;;;;;;11.52;3.17;;;14.10;99.90;;;;;;4986539;28;20409;-78
2022/08/28 00:29:19;;;;;;;8.50;2.42;;;14.00;99.90;;;;;;4981641;28;20050;-78
2022/08/28 00:31:45;;;;;;;8.32;2.58;;;14.10;99.90;;;;;;4985892;28;20105;-78
2022/08/28 00:34:11;;;;;;;8.48;3.03;;;14.10;99.90;;;;;;4985087;28;20045;-78
2022/08/28 00:36:37;;;;;;;7.22;2.85;;;14.10;99.90;;;;;;4985427;28;20043;-78
2022/08/28 00:39:05;;;;;;;8.93;3.67;;;14.10;99.90;;;;;;4986196;28;20047;-77
2022/08/28 00:41:31;;;;;;;18.85;4.72;;;14.00;99.90;;;;;;4973076;28;20712;-78
2022/08/28 00:44:19;;;;;;;9.77;2.95;;;13.90;99.90;;;;;;4971701;28;20042;-76
2022/08/28 00:46:47;;;;;;;9.23;2.72;;;13.90;99.90;;;;;;4984526;28;20374;-77
2022/08/28 00:49:16;;;;;;;11.82;3.25;;;14.00;99.90;;;;;;4985282;28;20085;-78
2022/08/28 00:54:32;;;;;;;9.98;3.47;;;13.90;99.90;;;;;;4985927;28;20047;-80
2022/08/28 00:57:02;;;;;;;11.23;2.85;;;13.80;99.90;;;;;;4986642;28;20058;-80
2022/08/28 00:59:28;;;;;;;8.27;2.85;;;13.90;99.90;;;;;;4982822;28;20417;-78
2022/08/28 01:01:56;;;;;;;5.05;2.40;;;13.90;99.90;;;;;;4984696;28;20037;-77
2022/08/28 01:04:25;;;;;;;9.07;3.47;;;13.90;99.90;;;;;;4985538;28;20042;-78
2022/08/28 01:06:54;;;;;;;13.88;3.33;;;13.90;99.90;;;;;;4985472;28;20397;-77
2022/08/28 01:09:23;;;;;;;5.68;3.15;;;13.90;99.90;;;;;;4984245;28;20042;-79
2022/08/28 01:11:51;;;;;;;15.60;3.92;;;13.80;99.90;;;;;;4984685;28;20046;-79
2022/08/28 01:14:21;;;;;;;8.00;3.10;;;13.80;99.90;;;;;;4984246;28;20038;-80
2022/08/28 01:16:51;;;;;;;8.65;3.05;;;13.80;99.90;;;;;;4970643;28;20069;-79
2022/08/28 01:19:25;;;;;;;7.65;3.20;;;13.70;99.90;;;;;;4986216;28;20054;-78
2022/08/28 01:22:06;;;;;;;9.40;2.88;;;13.70;99.90;;;;;;4985264;28;20034;-78
2022/08/28 01:24:34;;;;;;;10.32;2.88;;;13.70;99.90;;;;;;4969229;28;20046;-78
2022/08/28 01:27:00;;;;;;;11.15;2.88;;;13.70;99.90;;;;;;4987556;28;20145;-79
2022/08/28 01:29:27;;;;;;;8.77;2.92;;;13.70;99.90;;;;;;4983179;28;20545;-77
2022/08/28 01:31:53;;;;;;;11.52;3.05;;;13.60;99.90;;;;;;4986386;28;20065;-78
2022/08/28 01:34:20;;;;;;;10.05;3.05;;;13.70;99.90;;;;;;4985232;28;20077;-78
2022/08/28 01:36:47;;;;;;;7.45;2.88;;;13.60;99.90;;;;;;4983261;28;20064;-78
2022/08/28 01:39:19;;;;;;;8.43;2.47;;;13.60;99.90;;;;;;4982967;28;20050;-78
2022/08/28 01:41:46;;;;;;;8.63;2.85;;;13.60;99.90;;;;;;4983328;28;20097;-78
2022/08/28 01:44:14;;;;;;;8.60;3.45;;;13.60;99.90;;;;;;4978870;28;20030;-78
2022/08/28 01:46:41;;;;;;;9.13;2.47;;;13.50;99.90;;;;;;4984318;28;20125;-77
2022/08/28 01:49:08;;;;;;;16.50;3.65;;;13.60;99.90;;;;;;4983010;28;20050;-78
2022/08/28 01:51:34;;;;;;;8.07;2.83;;;13.50;99.90;;;;;;4973800;28;20045;-79
2022/08/28 01:54:00;;;;;;;12.23;3.20;;;13.50;99.90;;;;;;4979995;28;20051;-79
2022/08/28 01:56:26;;;;;;;6.03;2.50;;;13.40;99.90;;;;;;4979057;28;20038;-78
2022/08/28 01:58:51;;;;;;;9.50;3.15;;;13.40;99.90;;;;;;4975926;28;20046;-78
2022/08/28 02:01:20;;;;;;;14.50;4.32;;;13.30;99.90;;;;;;4981712;28;20400;-78
2022/08/28 02:03:46;;;;;;;7.10;3.25;;;13.40;99.90;;;;;;4984039;28;20703;-78
2022/08/28 02:06:13;;;;;;;7.85;2.75;;;13.30;99.90;;;;;;4979902;28;20042;-79
2022/08/28 02:08:39;;;;;;;16.65;3.60;;;13.30;99.90;;;;;;4982698;28;20048;-79
2022/08/28 02:11:07;;;;;;;5.70;2.38;;;13.30;99.90;;;;;;4980358;28;20125;-76
2022/08/28 02:13:35;;;;;;;14.45;3.78;;;13.20;99.90;;;;;;4984702;28;20077;-78
2022/08/28 02:16:01;;;;;;;11.55;2.80;;;13.00;99.90;;;;;;4980109;28;20053;-78
2022/08/28 02:18:26;;;;;;;10.02;3.50;;;13.00;99.90;;;;;;4985079;28;20050;-79
2022/08/28 02:20:52;;;;;;;12.90;3.65;;;13.10;99.90;;;;;;4984144;28;20177;-78
2022/08/28 02:23:18;;;;;;;9.35;2.67;;;13.00;99.90;;;;;;4983962;28;20085;-78
2022/08/28 02:25:43;;;;;;;8.65;3.45;;;13.00;99.90;;;;;;4979790;28;20054;-78
2022/08/28 02:28:09;;;;;;;10.02;2.80;;;13.10;99.90;;;;;;4972790;28;20041;-79
2022/08/28 02:30:37;;;;;;;10.05;3.95;;;13.10;99.90;;;;;;4980865;28;20065;-79
2022/08/28 02:33:03;;;;;;;12.38;3.92;;;13.00;99.90;;;;;;4984554;28;20046;-78
2022/08/28 02:35:30;;;;;;;5.90;2.72;;;13.00;99.90;;;;;;4982151;28;20038;-78
2022/08/28 02:37:55;;;;;;;8.90;4.40;;;12.90;99.90;;;;;;4985111;28;20046;-79
2022/08/28 02:40:23;;;;;;;23.73;5.32;;;13.00;99.90;;;;;;4979459;28;20088;-78
2022/08/28 02:42:49;;;;;;;15.00;4.72;;;12.90;99.90;;;;;;4983424;28;20030;-79
2022/08/28 02:45:16;;;;;;;16.75;4.15;;;12.90;99.90;;;;;;4980403;28;20057;-78
2022/08/28 02:47:43;;;;;;;9.32;3.20;;;12.90;99.90;;;;;;4981240;28;20173;-79
2022/08/28 02:50:11;;;;;;;10.93;3.15;;;12.90;99.90;;;;;;4977597;28;20093;-77
2022/08/28 02:52:37;;;;;;;17.08;3.72;;;12.90;99.90;;;;;;4978477;28;20078;-76
2022/08/28 02:55:05;;;;;;;32.15;3.78;;;13.00;99.90;;;;;;4984523;28;20096;-76
2022/08/28 02:57:31;;;;;;;7.63;2.35;;;12.90;99.90;;;;;;4984038;28;20034;-77
2022/08/28 02:59:58;;;;;;;6.05;2.53;;;12.80;99.90;;;;;;4983215;28;20034;-78
2022/08/28 03:02:24;;;;;;;8.90;2.45;;;12.70;99.90;;;;;;4984354;28;20052;-78
2022/08/28 03:04:50;;;;;;;11.63;3.45;;;12.80;99.90;;;;;;4984920;28;20089;-78
2022/08/28 03:07:18;;;;;;;4.38;2.03;;;12.70;99.90;;;;;;4981138;28;20070;-79
2022/08/28 03:09:44;;;;;;;4.88;2.08;;;12.70;99.90;;;;;;4984790;28;20050;-79
2022/08/28 03:12:11;;;;;;;11.80;2.28;;;12.70;99.90;;;;;;4984286;28;20615;-77
2022/08/28 03:14:38;;;;;;;15.43;4.22;;;12.70;99.90;;;;;;4982236;28;20205;-79
2022/08/28 03:17:06;;;;;;;5.82;2.53;;;12.70;99.90;;;;;;4984351;28;20077;-78
2022/08/28 03:19:32;;;;;;;7.93;2.53;;;12.60;99.90;;;;;;4984381;28;20049;-78
2022/08/28 03:21:57;;;;;;;6.05;2.58;;;12.60;99.90;;;;;;4975848;28;20047;-79
2022/08/28 03:24:23;;;;;;;7.32;3.63;;;12.60;99.90;;;;;;4979299;28;20445;-78
2022/08/28 03:26:49;;;;;;;3.13;2.17;;;12.50;99.90;;;;;;4987556;28;20034;-78
2022/08/28 03:29:15;;;;;;;4.55;2.28;;;12.50;99.90;;;;;;4986041;28;20184;-80
2022/08/28 03:31:40;;;;;;;8.40;2.85;;;12.40;99.90;;;;;;4986645;28;20050;-77
2022/08/28 03:34:06;;;;;;;5.85;2.45;;;12.40;99.90;;;;;;4986680;28;20038;-79
2022/08/28 03:36:33;;;;;;;7.05;2.92;;;12.30;99.90;;;;;;4985597;28;20061;-78
2022/08/28 03:39:00;;;;;;;18.10;3.90;;;12.30;99.90;;;;;;4987708;28;20050;-76
2022/08/28 03:41:28;;;;;;;8.88;3.35;;;12.30;99.90;;;;;;4976085;28;20046;-78
2022/08/28 03:43:56;;;;;;;4.50;1.80;;;12.30;99.90;;;;;;4988826;28;20042;-77
2022/08/28 03:46:23;;;;;;;11.77;3.13;;;12.20;99.90;;;;;;4976069;28;20413;-80
2022/08/28 03:48:50;;;;;;;6.25;1.77;;;12.20;99.90;;;;;;4987736;28;20188;-78
2022/08/28 03:51:19;;;;;;;7.85;2.58;;;12.20;99.90;;;;;;4982332;28;20034;-78
2022/08/28 03:53:46;;;;;;;5.50;2.60;;;11.90;99.90;;;;;;5001154;28;20121;-78
2022/08/28 03:56:15;;;;;;;7.93;1.95;;;12.00;99.90;;;;;;4985050;28;20046;-79
2022/08/28 03:58:42;;;;;;;5.80;1.88;;;12.00;99.90;;;;;;4989595;28;20040;-78
2022/08/28 04:01:08;;;;;;;5.35;2.35;;;12.00;99.90;;;;;;4987473;28;20053;-78
2022/08/28 04:03:34;;;;;;;8.57;2.75;;;12.00;99.90;;;;;;4988901;28;20049;-76
2022/08/28 04:06:00;;;;;;;7.55;3.22;;;12.10;99.90;;;;;;4985457;28;20042;-78
2022/08/28 04:08:27;;;;;;;6.70;2.15;;;12.10;99.90;;;;;;4986879;28;20050;-79
2022/08/28 04:10:53;;;;;;;6.45;2.13;;;12.10;99.90;;;;;;4987725;28;20082;-78
2022/08/28 04:13:21;;;;;;;7.80;2.35;;;12.10;99.90;;;;;;4988889;28;20046;-78
2022/08/28 04:15:58;;;;;;;7.70;2.13;;;12.10;99.90;;;;;;4984215;28;20046;-79
2022/08/28 04:18:25;;;;;;;6.43;2.65;;;12.10;99.90;;;;;;4988761;28;20042;-78
2022/08/28 04:21:04;;;;;;;3.75;1.80;;;12.10;99.90;;;;;;4989017;28;20038;-78
2022/08/28 04:23:30;;;;;;;3.03;2.00;;;12.10;99.90;;;;;;4989121;28;20042;-77
2022/08/28 04:25:56;;;;;;;5.47;2.42;;;12.00;99.90;;;;;;4985251;28;20556;-78
2022/08/28 04:28:22;;;;;;;6.75;2.13;;;12.00;99.90;;;;;;4985086;28;20042;-78
2022/08/28 04:30:53;;;;;;;10.05;3.30;;;12.00;99.90;;;;;;4987106;28;20038;-79
2022/08/28 04:33:19;;;;;;;7.47;2.17;;;12.10;99.90;;;;;;4986783;28;20049;-79
2022/08/28 04:35:45;;;;;;;6.53;2.58;;;12.10;99.90;;;;;;4982306;28;20409;-80
2022/08/28 04:38:11;;;;;;;16.05;3.40;;;12.10;99.90;;;;;;4984831;28;20040;-78
2022/08/28 04:40:40;;;;;;;7.50;2.38;;;12.10;99.90;;;;;;4988527;28;20056;-78
2022/08/28 04:43:06;;;;;;;6.82;1.75;;;12.10;99.90;;;;;;4984667;28;20030;-79
2022/08/28 04:45:32;;;;;;;4.13;2.85;;;12.10;99.90;;;;;;4984016;28;20062;-79
2022/08/28 04:47:58;;;;;;;3.30;1.98;;;12.20;99.90;;;;;;4985584;28;20050;-80
2022/08/28 04:50:24;;;;;;;5.00;1.42;;;12.20;99.90;;;;;;4987252;28;20045;-77
2022/08/28 04:52:50;;;;;;;7.47;2.17;;;12.20;99.90;;;;;;4988010;28;20096;-79
2022/08/28 04:55:16;;;;;;;6.28;2.25;;;12.10;99.90;;;;;;4986037;28;20053;-78
2022/08/28 04:57:41;;;;;;;7.35;2.33;;;12.20;99.90;;;;;;4973558;28;20046;-79
2022/08/28 05:00:09;;;;;;;6.18;3.53;;;12.20;99.90;;;;;;4986172;28;20051;-80
2022/08/28 05:02:34;;;;;;;5.45;1.90;;;12.20;99.90;;;;;;4988356;28;20402;-78
2022/08/28 05:05:01;;;;;;;13.32;3.35;;;12.20;99.90;;;;;;4986211;28;20049;-77
2022/08/28 05:07:26;;;;;;;11.18;2.40;;;12.20;99.90;;;;;;4988062;28;20073;-80
2022/08/28 05:09:53;;;;;;;6.95;2.70;;;12.20;99.90;;;;;;4988044;28;20085;-79
2022/08/28 05:12:19;;;;;;;10.98;2.20;;;12.20;99.90;;;;;;4982900;28;20042;-77
2022/08/28 05:14:44;;;;;;;7.10;2.03;;;12.20;99.90;;;;;;4987083;28;20054;-78
2022/08/28 05:17:13;;;;;;;8.38;1.75;;;12.30;99.90;;;;;;4988388;28;20039;-78
2022/08/28 05:19:39;;;;;;;17.02;2.65;;;12.30;99.90;;;;;;4988025;28;20042;-78
2022/08/28 05:22:05;;;;;;;7.35;2.85;;;12.40;99.90;;;;;;4988719;28;20053;-80
2022/08/28 05:24:30;;;;;;;2.60;1.77;;;12.50;99.90;;;;;;4988268;28;20042;-78
2022/08/28 05:26:56;;;;;;;4.68;2.42;;;12.50;99.90;;;;;;4984017;28;20121;-78
2022/08/28 05:29:22;;;;;;;11.02;2.42;;;12.70;99.90;;;;;;4986475;28;20057;-77
2022/08/28 05:31:48;;;;;;;8.80;2.08;;;12.60;99.90;;;;;;4985670;28;20049;-78
2022/08/28 05:34:14;;;;;;;7.85;2.10;;;12.70;99.90;;;;;;4981997;28;20050;-79
2022/08/28 05:36:40;;;;;;;9.57;1.70;;;12.80;99.90;;;;;;4984960;28;20120;-78
2022/08/28 05:39:08;;;;;;;4.32;2.78;;;12.90;99.90;;;;;;4985922;28;20110;-78
2022/08/28 05:41:35;;;;;;;11.65;2.47;;;13.00;99.90;;;;;;4985801;28;20049;-77
2022/08/28 05:44:07;;;;;;;6.10;1.52;;;13.30;99.90;;;;;;4986647;28;20034;-78
2022/08/28 05:46:36;;;;;;;12.38;2.88;;;13.50;99.90;;;;;;4984319;28;20050;-77
2022/08/28 05:49:02;;;;;;;7.85;1.80;;;13.60;99.90;;;;;;4984552;28;20132;-78
2022/08/28 05:51:28;;;;;;;13.75;2.80;;;13.70;99.90;;;;;;4986846;28;20034;-78
2022/08/28 05:53:56;;;;;;;12.02;2.90;;;13.70;99.90;;;;;;4986963;28;20047;-79
2022/08/28 05:56:28;;;;;;;11.43;2.45;;;13.80;99.90;;;;;;4985100;28;20043;-79
2022/08/28 05:58:55;;;;;;;9.80;1.83;;;14.00;99.90;;;;;;4982039;28;20125;-76
2022/08/28 06:01:29;;;;;;;8.93;2.88;;;14.10;99.90;;;;;;4986473;28;20501;-78
2022/08/28 06:04:02;;;;;;;7.82;1.48;;;14.20;99.90;;;;;;4986803;28;20121;-78
2022/08/28 06:06:33;;;;;;;5.95;1.77;;;14.30;99.90;;;;;;4984265;28;20094;-78
2022/08/28 06:09:18;;;;;;;5.30;1.60;;;14.50;99.90;;;;;;4985803;28;20046;-78
2022/08/28 06:11:44;;;;;;;9.00;1.63;;;14.60;99.90;;;;;;4983362;28;20046;-78
2022/08/28 06:14:12;;;;;;;5.25;1.48;;;14.70;99.90;;;;;;4984326;28;20528;-79
2022/08/28 06:16:42;;;;;;;5.88;1.80;;;14.70;99.90;;;;;;4985126;28;20046;-78
2022/08/28 06:19:10;;;;;;;3.92;1.35;;;14.80;99.90;;;;;;4981382;28;20054;-79
2022/08/28 06:21:39;;;;;;;6.75;2.00;;;14.80;99.90;;;;;;4985775;28;20046;-79
2022/08/28 06:24:05;;;;;;;5.65;1.48;;;14.90;99.90;;;;;;4986239;28;20047;-76
2022/08/28 06:26:30;;;;;;;6.50;1.48;;;14.90;99.90;;;;;;4985607;28;20046;-78
2022/08/28 06:29:05;;;;;;;8.25;1.77;;;15.10;99.90;;;;;;4999526;28;20706;-78
2022/08/28 06:31:32;;;;;;;7.80;2.20;;;15.20;99.90;;;;;;4982548;28;20076;-78
2022/08/28 06:33:59;;;;;;;4.65;1.48;;;15.30;99.90;;;;;;4985086;28;20074;-79
2022/08/28 06:36:26;;;;;;;4.72;1.20;;;15.40;99.90;;;;;;4983896;28;20480;-78
2022/08/28 06:38:54;;;;;;;6.57;1.33;;;15.40;99.90;;;;;;4985896;28;20058;-77
2022/08/28 06:41:20;;;;;;;6.82;2.30;;;15.50;99.90;;;;;;4983132;28;20080;-76
2022/08/28 06:43:46;;;;;;;5.68;1.77;;;15.60;99.90;;;;;;4969601;28;20077;-76
2022/08/28 06:46:11;;;;;;;8.52;1.10;;;15.70;99.90;;;;;;4983346;28;20054;-76
2022/08/28 06:48:37;;;;;;;11.77;2.10;;;15.90;99.90;;;;;;4984945;28;20043;-78
2022/08/28 06:51:06;;;;;;;6.45;1.13;;;15.80;99.90;;;;;;4983746;28;20046;-77
2022/08/28 06:53:32;;;;;;;7.85;1.90;;;16.00;99.90;;;;;;4983896;28;20109;-81
2022/08/28 06:56:06;;;;;;;7.55;1.70;;;16.10;99.90;;;;;;4984534;28;20461;-78
2022/08/28 06:58:33;;;;;;;6.25;2.72;;;16.20;99.90;;;;;;4984270;28;20053;-77
2022/08/28 07:01:07;;;;;;;14.02;2.90;;;16.40;99.90;;;;;;4989471;28;20054;-77
2022/08/28 07:03:33;;;;;;;6.75;1.33;;;16.40;99.90;;;;;;4989470;28;20104;-77
2022/08/28 07:06:01;;;;;;;10.27;1.70;;;16.40;99.90;;;;;;4988170;28;20046;-77
2022/08/28 07:08:28;;;;;;;15.40;2.92;;;16.60;99.90;;;;;;4972710;28;20035;-77
2022/08/28 07:10:54;;;;;;;3.22;1.10;;;17.80;99.90;;;;;;4989062;28;20038;-77
2022/08/28 07:13:21;;;;;;;3.70;1.45;;;18.90;99.90;;;;;;4988065;28;20069;-77
2022/08/28 07:15:47;;;;;;;7.90;1.75;;;18.00;99.90;;;;;;4986861;28;20046;-78
2022/08/28 07:18:13;;;;;;;3.33;1.10;;;17.60;99.90;;;;;;4988358;28;20069;-75
2022/08/28 07:20:39;;;;;;;3.22;1.02;;;17.40;99.90;;;;;;4988192;28;20129;-79
2022/08/28 07:23:05;;;;;;;7.35;1.67;;;17.30;99.90;;;;;;4986470;28;20176;-76
2022/08/28 07:25:31;;;;;;;6.63;1.27;;;17.40;99.90;;;;;;4987499;28;20351;-76
2022/08/28 07:27:56;;;;;;;6.47;1.20;;;17.50;99.90;;;;;;4985468;28;20054;-78
2022/08/28 07:30:22;;;;;;;2.97;1.25;;;17.60;99.90;;;;;;4970224;28;20548;-77
2022/08/28 07:32:48;;;;;;;9.70;1.45;;;17.70;99.90;;;;;;4988181;28;20069;-78
2022/08/28 07:35:15;;;;;;;10.65;2.30;;;17.80;99.90;;;;;;4988434;28;20081;-77
2022/08/28 07:37:41;;;;;;;6.47;2.65;;;17.90;99.90;;;;;;4987317;28;20042;-76
2022/08/28 07:40:08;;;;;;;5.03;1.92;;;18.00;99.90;;;;;;4984874;28;20038;-77
2022/08/28 07:45:19;;;;;;;7.55;2.10;;;18.20;99.90;;;;;;4985201;28;20091;-77
2022/08/28 07:47:44;;;;;;;6.85;1.40;;;18.40;99.90;;;;;;4983635;28;20089;-77
2022/08/28 07:50:10;;;;;;;6.03;1.40;;;18.20;99.90;;;;;;4983521;28;20113;-78
2022/08/28 07:52:36;;;;;;;7.65;1.25;;;18.00;99.90;;;;;;4986208;28;20127;-77
2022/08/28 07:55:04;;;;;;;4.32;1.45;;;18.10;99.90;;;;;;4987037;28;20054;-77
2022/08/28 07:57:30;;;;;;;9.30;1.42;;;18.00;99.90;;;;;;4984866;28;20389;-76
2022/08/28 07:59:58;;;;;;;31.30;2.65;;;18.30;99.90;;;;;;4980887;28;20495;-77
2022/08/28 08:02:24;;;;;;;4.90;1.38;;;18.40;99.90;;;;;;4987992;28;20042;-78
2022/08/28 08:04:49;;;;;;;13.95;3.45;;;18.50;99.90;;;;;;4989331;28;20043;-77
2022/08/28 08:07:16;;;;;;;3.53;1.02;;;18.60;99.90;;;;;;4986730;28;20465;-78
2022/08/28 08:09:43;;;;;;;6.15;1.85;;;18.60;99.90;;;;;;4986462;28;20069;-77
2022/08/28 08:12:11;;;;;;;9.60;2.03;;;18.90;99.90;;;;;;4986162;28;20065;-77
2022/08/28 08:14:38;;;;;;;19.35;2.95;;;19.10;99.90;;;;;;4986665;28;20070;-75
2022/08/28 08:17:04;;;;;;;4.93;1.42;;;19.10;99.90;;;;;;4984839;28;20046;-78
2022/08/28 08:19:31;;;;;;;3.50;1.15;;;18.60;99.90;;;;;;4988779;28;20046;-79
2022/08/28 08:21:56;;;;;;;4.50;1.50;;;18.40;99.90;;;;;;4988779;28;20526;-78
2022/08/28 08:24:27;;;;;;;6.85;2.17;;;18.40;99.90;;;;;;4983512;28;20077;-80
2022/08/28 08:26:55;;;;;;;4.72;1.33;;;18.30;99.90;;;;;;4983821;28;20077;-78
2022/08/28 08:29:21;;;;;;;5.65;1.50;;;18.30;99.90;;;;;;4984243;28;20062;-80
2022/08/28 08:31:56;;;;;;;5.78;2.22;;;18.20;99.90;;;;;;4982745;28;20038;-80
2022/08/28 08:34:21;;;;;;;5.00;1.30;;;18.20;99.90;;;;;;4980629;28;20046;-79
2022/08/28 08:36:47;;;;;;;4.32;1.30;;;18.10;99.90;;;;;;4985917;28;20453;-79
2022/08/28 08:39:13;;;;;;;7.95;1.60;;;18.10;99.90;;;;;;4986527;28;20101;-78
2022/08/28 08:41:47;;;;;;;6.20;1.77;;;18.10;99.90;;;;;;4988086;28;20082;-80
2022/08/28 08:44:22;;;;;;;7.32;1.20;;;18.00;99.90;;;;;;4997089;28;20046;-78
2022/08/28 08:46:59;;;;;;;17.67;2.78;;;17.90;99.90;;;;;;4981749;28;20062;-78
2022/08/28 08:49:30;;;;;;;6.03;1.73;;;17.90;99.90;;;;;;4986732;28;20297;-79
2022/08/28 08:52:09;;;;;;;5.68;1.58;;;17.90;99.90;;;;;;4987786;28;20489;-78
2022/08/28 08:54:40;;;;;;;10.75;2.88;;;18.20;99.90;;;;;;4987541;28;20042;-80
2022/08/28 08:57:09;;;;;;;3.47;1.52;;;18.50;99.90;;;;;;4986779;28;20088;-77
2022/08/28 08:59:37;;;;;;;7.53;1.58;;;18.80;99.90;;;;;;4986142;28;20125;-76
2022/08/28 09:02:13;;;;;;;8.65;1.40;;;19.00;99.90;;;;;;4983277;28;20154;-77
2022/08/28 09:04:40;;;;;;;5.30;1.65;;;19.40;99.90;;;;;;4986078;28;20400;-79
2022/08/28 09:07:15;;;;;;;3.38;1.00;;;19.30;99.90;;;;;;4985313;28;20453;-78
2022/08/28 09:09:45;;;;;;;8.27;1.92;;;19.20;99.90;;;;;;5002960;28;20050;-78
2022/08/28 09:12:16;;;;;;;3.85;1.75;;;18.80;99.90;;;;;;4982442;28;20446;-81
2022/08/28 09:15:04;;;;;;;3.05;1.25;;;18.50;99.90;;;;;;4986565;28;20042;-79
2022/08/28 09:17:46;;;;;;;10.40;3.15;;;18.30;99.90;;;;;;4984007;28;20257;-79
2022/08/28 09:20:15;;;;;;;10.18;1.65;;;18.20;99.90;;;;;;4986634;28;20111;-78
2022/08/28 09:22:44;;;;;;;11.60;2.10;;;18.20;99.90;;;;;;4987447;28;20057;-77
2022/08/28 09:25:11;;;;;;;12.43;2.15;;;18.20;99.90;;;;;;4981919;28;20034;-78
2022/08/28 09:27:51;;;;;;;7.75;1.75;;;18.90;99.90;;;;;;4980217;28;20061;-76
2022/08/28 09:30:29;;;;;;;5.15;1.35;;;19.20;99.90;;;;;;4985351;28;20045;-78
2022/08/28 09:32:59;;;;;;;5.82;1.52;;;19.30;99.90;;;;;;4985670;28;20092;-76
2022/08/28 09:35:32;;;;;;;6.60;1.50;;;19.10;99.90;;;;;;4983558;28;20049;-79
2022/08/28 09:38:19;;;;;;;7.70;1.75;;;18.80;99.90;;;;;;4985282;28;20417;-79
2022/08/28 09:43:32;;;;;;;6.40;1.48;;;18.60;99.90;;;;;;4985110;28;20141;-79
2022/08/28 09:46:18;;;;;;;8.40;1.67;;;18.60;99.90;;;;;;4983937;28;20521;-80
2022/08/28 09:48:46;;;;;;;8.32;1.10;;;18.40;99.90;;;;;;4983269;28;20492;-75
2022/08/28 09:51:26;;;;;;;5.72;1.92;;;18.30;99.90;;;;;;4976591;28;20030;-78
2022/08/28 09:53:53;;;;;;;10.82;3.60;;;18.20;99.90;;;;;;4985320;28;20054;-80
2022/08/28 09:56:24;;;;;;;8.88;1.60;;;18.80;99.90;;;;;;4985021;28;20104;-79
2022/08/28 09:58:53;;;;;;;6.35;1.88;;;19.30;99.90;;;;;;4979828;28;20049;-79
2022/08/28 10:01:34;;;;;;;7.93;1.63;;;19.30;99.90;;;;;;4985880;28;20070;-77
2022/08/28 10:04:28;;;;;;;7.68;1.38;;;19.10;99.90;;;;;;4985992;28;20046;-78
2022/08/28 10:07:04;;;;;;;8.80;1.95;;;19.00;99.90;;;;;;4984207;28;20042;-78
2022/08/28 10:09:48;;;;;;;4.22;1.63;;;18.90;99.90;;;;;;4987090;28;20046;-77
2022/08/28 10:12:42;;;;;;;7.05;1.98;;;18.90;99.90;;;;;;4983468;28;20485;-80
2022/08/28 10:15:17;;;;;;;3.80;1.88;;;19.10;99.90;;;;;;4978884;28;20038;-79
2022/08/28 10:18:17;;;;;;;5.03;1.30;;;19.20;99.90;;;;;;4980364;28;20047;-78
2022/08/28 10:21:20;;;;;;;8.40;2.08;;;19.40;99.90;;;;;;4979953;28;20497;-77
2022/08/28 10:24:07;;;;;;;7.28;2.75;;;19.50;99.90;;;;;;4982537;28;20146;-76
2022/08/28 10:26:38;;;;;;;5.65;1.10;;;19.20;99.90;;;;;;4983346;28;20050;-77
2022/08/28 10:29:07;;;;;;;6.32;1.90;;;19.00;99.90;;;;;;4979270;28;20046;-77
2022/08/28 10:31:45;;;;;;;6.63;1.75;;;18.80;99.90;;;;;;4979642;28;20441;-77
2022/08/28 10:34:20;;;;;;;5.43;1.50;;;19.10;99.90;;;;;;4983852;28;20110;-77
2022/08/28 10:36:57;;;;;;;6.57;1.48;;;19.40;99.90;;;;;;4985049;28;20101;-75
2022/08/28 10:39:41;;;;;;;6.07;1.70;;;19.70;99.90;;;;;;4980681;28;20042;-75
2022/08/28 10:42:07;;;;;;;5.15;1.30;;;19.90;99.90;;;;;;4979645;28;20535;-75
2022/08/28 10:44:53;;;;;;;8.07;1.75;;;20.00;99.90;;;;;;4976696;28;20088;-76
2022/08/28 10:47:20;;;;;;;5.78;2.28;;;20.00;99.90;;;;;;4974462;28;20049;-76
2022/08/28 10:49:50;;;;;;;4.20;1.40;;;20.20;99.90;;;;;;4983494;28;20086;-76
2022/08/28 10:52:29;;;;;;;3.30;1.77;;;19.80;99.90;;;;;;4983926;28;20113;-76
2022/08/28 10:55:03;;;;;;;6.03;1.30;;;19.40;99.90;;;;;;4985157;28;20109;-76
2022/08/28 10:57:39;;;;;;;4.15;1.10;;;19.10;99.90;;;;;;4984035;28;20141;-77
2022/08/28 11:00:12;;;;;;;4.93;1.83;;;19.60;99.90;;;;;;4978492;28;20462;-76
2022/08/28 11:02:42;;;;;;;4.97;1.55;;;20.00;99.90;;;;;;4985443;28;20063;-77
2022/08/28 11:05:09;;;;;;;6.35;1.05;;;19.90;99.90;;;;;;4984633;28;20042;-76
2022/08/28 11:07:43;;;;;;;4.75;1.15;;;19.60;99.90;;;;;;4983310;28;20050;-76
2022/08/28 11:10:37;;;;;;;3.42;1.20;;;19.90;99.90;;;;;;4982719;28;20133;-77
2022/08/28 11:13:05;;;;;;;6.13;1.35;;;20.30;99.90;;;;;;4966366;28;20051;-79
2022/08/28 11:15:31;;;;;;;3.53;1.23;;;20.40;99.90;;;;;;4965833;28;20050;-80
2022/08/28 11:18:15;;;;;;;6.15;1.70;;;20.40;99.90;;;;;;4977301;28;20064;-82
2022/08/28 11:21:12;;;;;;;5.97;2.38;;;20.40;99.90;;;;;;4982625;28;20366;-81
2022/08/28 11:24:04;;;;;;;3.28;0.95;;;20.50;99.90;;;;;;4965209;28;20073;-78
2022/08/28 11:26:56;;;;;;;9.63;1.90;;;20.60;99.90;;;;;;4977496;28;20093;-78
2022/08/28 11:30:00;;;;;;;5.72;1.80;;;20.40;99.90;;;;;;4973012;28;20054;-78
2022/08/28 11:32:54;;;;;;;5.38;1.30;;;20.10;99.90;;;;;;4975898;28;20054;-78
2022/08/28 11:35:29;;;;;;;4.28;1.63;;;19.40;99.90;;;;;;4980960;28;20073;-78
2022/08/28 11:37:57;;;;;;;6.70;1.83;;;19.50;99.90;;;;;;4981107;28;20046;-79
2022/08/28 11:40:31;;;;;;;4.40;1.25;;;19.70;99.90;;;;;;4977333;28;20046;-78
2022/08/28 11:43:14;;;;;;;4.05;1.27;;;20.00;99.90;;;;;;4982035;28;20050;-78
2022/08/28 11:45:46;;;;;;;3.47;1.60;;;20.00;99.90;;;;;;4987997;28;20532;-77
2022/08/28 11:48:33;;;;;;;3.60;1.35;;;20.00;99.90;;;;;;4977049;28;20057;-77
2022/08/28 11:51:06;;;;;;;6.65;1.50;;;20.00;99.90;;;;;;4968715;28;20051;-77
2022/08/28 11:53:45;;;;;;;4.88;1.70;;;20.20;99.90;;;;;;4985468;28;20047;-78
2022/08/28 11:56:22;;;;;;;8.82;1.75;;;20.40;99.90;;;;;;4980809;28;20098;-78
2022/08/28 11:59:10;;;;;;;2.50;1.17;;;20.50;99.90;;;;;;4968469;28;20050;-78
2022/08/28 12:01:36;;;;;;;4.28;1.30;;;20.50;99.90;;;;;;4972947;28;20050;-77
2022/08/28 12:04:04;;;;;;;6.90;2.45;;;20.90;99.90;;;;;;4989275;28;20046;-78
2022/08/28 12:06:48;;;;;;;10.15;2.75;;;21.00;99.90;;;;;;4987781;28;20619;-79
2022/08/28 12:09:40;;;;;;;5.43;1.73;;;20.70;99.90;;;;;;4985707;28;20054;-79
2022/08/28 12:12:44;;;;;;;4.18;1.40;;;20.80;99.90;;;;;;4987515;28;20046;-79
2022/08/28 12:15:30;;;;;;;5.00;1.77;;;20.80;99.90;;;;;;4986129;28;20042;-78
2022/08/28 12:17:59;;;;;;;4.97;1.63;;;20.90;99.90;;;;;;4986826;28;20129;-79
2022/08/28 12:20:28;;;;;;;11.05;1.15;;;20.90;99.90;;;;;;4985577;28;20260;-78
2022/08/28 12:22:58;;;;;;;6.15;1.33;;;21.10;99.90;;;;;;4987462;28;20053;-79
2022/08/28 12:25:40;;;;;;;4.32;1.75;;;21.00;99.90;;;;;;4987334;28;20081;-79
2022/08/28 12:28:25;;;;;;;6.45;1.25;;;21.40;99.90;;;;;;4985214;28;20140;-79
2022/08/28 12:31:05;;;;;;;2.28;0.90;;;20.70;99.90;;;;;;4987797;28;20042;-78
2022/08/28 12:34:02;;;;;;;1.50;0.90;;;20.50;99.90;;;;;;4988665;28;20071;-79
2022/08/28 12:36:27;;;;;;;2.75;0.95;;;20.80;99.90;;;;;;4968090;28;20055;-79
2022/08/28 12:38:59;;;;;;;8.02;1.77;;;20.80;99.90;;;;;;4974147;28;20045;-79
2022/08/28 12:41:26;;;;;;;3.47;0.90;;;20.60;99.90;;;;;;4986890;28;20061;-77
2022/08/28 12:43:57;;;;;;;8.10;1.20;;;20.10;99.90;;;;;;4986182;28;20057;-79
2022/08/28 12:46:30;;;;;;;3.65;1.27;;;20.10;99.90;;;;;;4987137;28;20057;-79
2022/08/28 12:49:00;;;;;;;5.07;1.50;;;20.00;99.90;;;;;;4987754;28;20088;-78
2022/08/28 12:51:28;;;;;;;3.88;1.23;;;20.00;99.90;;;;;;4987479;28;20038;-81
2022/08/28 12:54:02;;;;;;;6.95;1.70;;;20.20;99.90;;;;;;4985432;28;20599;-78
2022/08/28 12:56:34;;;;;;;2.88;1.02;;;20.40;99.90;;;;;;4985263;28;20404;-79
2022/08/28 12:59:33;;;;;;;1.25;1.15;;;20.90;99.90;;;;;;4986898;28;20057;-79
2022/08/28 13:02:21;;;;;;;2.60;1.17;;;20.80;99.90;;;;;;4985230;28;20046;-78
2022/08/28 13:04:55;;;;;;;2.33;1.00;;;20.40;99.90;;;;;;4987712;28;20042;-79
2022/08/28 13:07:45;;;;;;;4.35;1.15;;;20.20;99.90;;;;;;4985876;28;20441;-80
2022/08/28 13:10:21;;;;;;;2.58;0.50;;;19.90;99.90;;;;;;4986126;28;20046;-80
2022/08/28 13:13:09;;;;;;;4.90;1.55;;;19.90;99.90;;;;;;4986654;28;20125;-77
2022/08/28 13:15:57;;;;;;;4.68;1.30;;;19.90;99.90;;;;;;4987189;28;20512;-79